createdAt,value
2019-05-23T00:02:37.074Z,9.20
2019-05-23T00:05:38.628Z,9.20
2019-05-23T00:08:29.697Z,9.10
2019-05-23T00:11:05.682Z,9.00
2019-05-23T00:14:00.468Z,9.00
2019-05-23T00:16:32.055Z,9.00
2019-05-23T00:19:02.219Z,9.00
2019-05-23T00:21:33.380Z,8.90
2019-05-23T00:24:05.352Z,8.90
2019-05-23T00:26:35.978Z,8.90
2019-05-23T00:29:10.415Z,8.80
2019-05-23T00:31:41.133Z,8.80
2019-05-23T00:34:10.809Z,8.70
2019-05-23T00:36:42.177Z,8.70
2019-05-23T00:39:14.248Z,8.70
2019-05-23T00:41:45.127Z,8.70
2019-05-23T00:44:16.040Z,8.60
2019-05-23T00:46:46.764Z,8.60
2019-05-23T00:49:18.590Z,8.60
2019-05-23T00:51:48.430Z,8.60
2019-05-23T00:54:19.548Z,8.60
2019-05-23T00:56:50.601Z,8.60
2019-05-23T00:59:27.000Z,8.60
2019-05-23T01:01:53.902Z,8.60
2019-05-23T01:04:24.179Z,8.60
2019-05-23T01:06:56.392Z,8.50
2019-05-23T01:09:27.650Z,8.50
2019-05-23T01:11:58.542Z,8.50
2019-05-23T01:14:28.932Z,8.40
2019-05-23T01:17:01.275Z,8.40
2019-05-23T01:19:32.632Z,8.30
2019-05-23T01:22:07.426Z,8.30
2019-05-23T01:24:47.711Z,8.20
2019-05-23T01:27:19.742Z,8.30
2019-05-23T01:29:51.367Z,8.20
2019-05-23T01:32:26.273Z,8.20
2019-05-23T01:34:56.803Z,8.20
2019-05-23T01:38:05.737Z,8.30
2019-05-23T01:40:40.652Z,8.20
2019-05-23T01:43:13.458Z,8.20
2019-05-23T01:45:44.108Z,8.20
2019-05-23T01:48:14.826Z,8.10
2019-05-23T01:50:45.464Z,8.10
2019-05-23T01:53:16.779Z,8.00
2019-05-23T01:55:46.862Z,8.00
2019-05-23T01:58:17.041Z,8.00
2019-05-23T02:00:47.664Z,8.00
2019-05-23T02:03:17.866Z,8.00
2019-05-23T02:05:48.042Z,8.00
2019-05-23T02:08:18.442Z,8.00
2019-05-23T02:10:49.084Z,8.00
2019-05-23T02:13:19.669Z,8.00
2019-05-23T02:15:50.046Z,8.00
2019-05-23T02:18:20.893Z,8.00
2019-05-23T02:20:50.909Z,8.00
2019-05-23T02:23:21.725Z,8.00
2019-05-23T02:25:52.215Z,8.00
2019-05-23T02:28:24.054Z,8.00
2019-05-23T02:30:55.236Z,7.90
2019-05-23T02:33:25.544Z,7.90
2019-05-23T02:35:56.271Z,7.80
2019-05-23T02:38:44.684Z,7.80
2019-05-23T02:41:28.813Z,7.80
2019-05-23T02:44:00.823Z,7.80
2019-05-23T02:46:34.997Z,7.70
2019-05-23T02:49:08.083Z,7.70
2019-05-23T02:51:39.195Z,7.70
2019-05-23T02:54:12.234Z,7.60
2019-05-23T02:56:41.392Z,7.70
2019-05-23T02:59:33.490Z,7.70
2019-05-23T03:02:13.896Z,7.60
2019-05-23T03:04:44.731Z,7.60
2019-05-23T03:07:16.046Z,7.70
2019-05-23T03:09:47.417Z,7.60
2019-05-23T03:12:18.312Z,7.70
2019-05-23T03:14:49.136Z,7.70
2019-05-23T03:17:20.857Z,7.60
2019-05-23T03:20:01.785Z,7.50
2019-05-23T03:22:38.830Z,7.50
2019-05-23T03:25:34.098Z,7.50
2019-05-23T03:28:07.782Z,7.50
2019-05-23T03:30:40.109Z,7.40
2019-05-23T03:33:11.066Z,7.40
2019-05-23T03:35:43.365Z,7.30
2019-05-23T03:38:14.145Z,7.30
2019-05-23T03:40:44.470Z,7.20
2019-05-23T03:43:16.217Z,7.20
2019-05-23T03:45:51.413Z,7.20
2019-05-23T03:48:22.201Z,7.20
2019-05-23T03:50:52.739Z,7.30
2019-05-23T03:53:25.039Z,7.30
2019-05-23T03:56:01.821Z,7.30
2019-05-23T03:58:33.699Z,7.30
2019-05-23T04:01:06.609Z,7.30
2019-05-23T04:03:40.187Z,7.30
2019-05-23T04:06:09.615Z,7.20
2019-05-23T04:08:40.949Z,7.20
2019-05-23T04:11:11.992Z,7.20
2019-05-23T04:13:42.421Z,7.30
2019-05-23T04:16:12.698Z,7.30
2019-05-23T04:18:43.272Z,7.30
2019-05-23T04:21:14.193Z,7.20
2019-05-23T04:23:44.563Z,7.20
2019-05-23T04:26:14.899Z,7.30
2019-05-23T04:28:45.602Z,7.30
2019-05-23T04:31:15.880Z,7.40
2019-05-23T04:33:46.093Z,7.50
2019-05-23T04:36:22.129Z,7.50
2019-05-23T04:39:11.559Z,7.50
2019-05-23T04:41:41.712Z,7.50
2019-05-23T04:44:12.857Z,7.50
2019-05-23T04:46:43.835Z,7.60
2019-05-23T04:49:16.381Z,7.60
2019-05-23T04:51:47.549Z,7.70
2019-05-23T04:54:18.113Z,7.70
2019-05-23T04:56:48.809Z,7.80
2019-05-23T04:59:19.447Z,7.70
2019-05-23T05:01:50.907Z,7.80
2019-05-23T05:04:21.391Z,7.90
2019-05-23T05:06:51.623Z,8.00
2019-05-23T05:09:23.284Z,8.10
2019-05-23T05:11:54.446Z,8.10
2019-05-23T05:14:24.806Z,8.20
2019-05-23T05:16:55.736Z,8.30
2019-05-23T05:19:26.438Z,8.40
2019-05-23T05:21:56.758Z,8.50
2019-05-23T05:24:27.167Z,8.50
2019-05-23T05:26:57.561Z,8.50
2019-05-23T05:29:27.656Z,8.60
2019-05-23T05:31:57.859Z,8.70
2019-05-23T05:34:28.195Z,8.80
2019-05-23T05:36:58.164Z,8.80
2019-05-23T05:39:28.505Z,9.00
2019-05-23T05:41:59.903Z,9.10
2019-05-23T05:44:30.293Z,9.10
2019-05-23T05:47:01.405Z,9.20
2019-05-23T05:49:31.615Z,9.30
2019-05-23T05:52:01.734Z,9.40
2019-05-23T05:54:32.029Z,9.60
2019-05-23T05:57:02.002Z,9.70
2019-05-23T05:59:33.536Z,9.80
2019-05-23T06:02:05.404Z,10.00
2019-05-23T06:04:35.667Z,10.10
2019-05-23T06:07:13.472Z,10.30
2019-05-23T06:09:45.419Z,10.40
2019-05-23T06:12:16.146Z,10.60
2019-05-23T06:14:46.757Z,10.70
2019-05-23T06:17:18.703Z,10.90
2019-05-23T06:19:48.782Z,11.10
2019-05-23T06:22:20.356Z,11.20
2019-05-23T06:24:54.252Z,11.40
2019-05-23T06:27:23.321Z,11.60
2019-05-23T06:29:53.497Z,11.70
2019-05-23T06:32:25.193Z,11.80
2019-05-23T06:34:56.440Z,12.00
2019-05-23T06:37:26.562Z,12.20
2019-05-23T06:39:57.145Z,12.30
2019-05-23T06:42:27.715Z,12.50
2019-05-23T06:44:58.117Z,12.60
2019-05-23T06:47:28.195Z,12.80
2019-05-23T06:49:58.204Z,12.90
2019-05-23T06:52:28.783Z,12.90
2019-05-23T06:54:59.891Z,13.00
2019-05-23T06:57:30.514Z,13.10
2019-05-23T07:00:00.501Z,13.20
2019-05-23T07:02:32.079Z,13.30
2019-05-23T07:05:02.411Z,13.40
2019-05-23T07:07:33.507Z,13.60
2019-05-23T07:10:05.659Z,13.70
2019-05-23T07:12:36.403Z,14.00
2019-05-23T07:15:09.024Z,14.20
2019-05-23T07:17:39.162Z,14.40
2019-05-23T07:20:10.338Z,14.60
2019-05-23T07:22:40.607Z,14.70
2019-05-23T07:25:11.215Z,14.90
2019-05-23T07:27:41.685Z,15.00
2019-05-23T07:30:25.847Z,15.20
2019-05-23T07:32:56.511Z,15.30
2019-05-23T07:35:31.782Z,15.50
2019-05-23T07:38:41.638Z,15.70
2019-05-23T07:41:12.082Z,15.90
2019-05-23T07:43:43.374Z,16.00
2019-05-23T07:46:13.386Z,16.10
2019-05-23T07:48:43.589Z,16.30
2019-05-23T07:51:13.617Z,16.40
2019-05-23T07:53:57.615Z,16.60
2019-05-23T07:56:29.583Z,16.70
2019-05-23T07:59:00.012Z,16.80
2019-05-23T08:01:32.249Z,17.00
2019-05-23T08:04:19.879Z,17.10
2019-05-23T08:06:34.432Z,17.20
2019-05-23T08:09:08.513Z,17.30
2019-05-23T08:11:39.198Z,17.50
2019-05-23T08:14:12.067Z,17.60
2019-05-23T08:16:41.427Z,17.80
2019-05-23T08:19:11.872Z,17.90
2019-05-23T08:21:43.818Z,18.00
2019-05-23T08:24:33.504Z,18.10
2019-05-23T08:27:05.641Z,18.20
2019-05-23T08:29:36.886Z,18.40
2019-05-23T08:32:07.474Z,18.50
2019-05-23T08:34:42.497Z,18.50
2019-05-23T08:37:11.584Z,18.60
2019-05-23T08:39:41.816Z,18.60
2019-05-23T08:42:12.510Z,18.70
2019-05-23T08:44:43.008Z,18.90
2019-05-23T08:47:13.424Z,19.00
2019-05-23T08:49:43.466Z,19.10
2019-05-23T08:52:13.601Z,19.30
2019-05-23T08:54:44.279Z,19.50
2019-05-23T08:57:14.674Z,19.70
2019-05-23T08:59:46.386Z,19.90
2019-05-23T09:02:16.767Z,20.00
2019-05-23T09:05:03.608Z,20.20
2019-05-23T09:07:19.710Z,20.20
2019-05-23T09:09:50.426Z,20.30
2019-05-23T09:12:20.491Z,20.30
2019-05-23T09:14:50.531Z,20.30
2019-05-23T09:17:22.151Z,20.30
2019-05-23T09:19:52.380Z,20.50
2019-05-23T09:22:22.532Z,20.70
2019-05-23T09:24:52.801Z,20.60
2019-05-23T09:27:22.833Z,20.60
2019-05-23T09:29:53.452Z,20.80
2019-05-23T09:32:23.923Z,20.90
2019-05-23T09:34:54.001Z,21.00
2019-05-23T09:37:24.542Z,21.10
2019-05-23T09:39:55.072Z,21.10
2019-05-23T09:42:25.294Z,21.00
2019-05-23T09:44:55.574Z,21.10
2019-05-23T09:47:25.984Z,21.10
2019-05-23T09:49:56.076Z,21.10
2019-05-23T09:52:28.942Z,21.30
2019-05-23T09:54:59.232Z,21.40
2019-05-23T09:57:30.186Z,21.50
2019-05-23T10:00:00.233Z,21.80
2019-05-23T10:02:31.527Z,21.90
2019-05-23T10:05:01.789Z,21.80
2019-05-23T10:07:32.133Z,21.80
2019-05-23T10:10:02.284Z,21.90
2019-05-23T10:12:33.571Z,22.30
2019-05-23T10:15:05.827Z,22.50
2019-05-23T10:17:36.040Z,22.60
2019-05-23T10:20:09.401Z,22.90
2019-05-23T10:22:39.696Z,22.70
2019-05-23T10:25:09.827Z,22.30
2019-05-23T10:27:40.962Z,21.90
2019-05-23T10:30:13.328Z,21.60
2019-05-23T10:32:42.899Z,21.60
2019-05-23T10:35:14.485Z,21.80
2019-05-23T10:37:45.917Z,22.00
2019-05-23T10:40:20.346Z,22.30
2019-05-23T10:42:50.498Z,22.70
2019-05-23T10:45:20.723Z,23.20
2019-05-23T10:47:51.040Z,23.50
2019-05-23T10:50:21.128Z,23.50
2019-05-23T10:52:51.542Z,23.30
2019-05-23T10:55:21.409Z,23.00
2019-05-23T10:57:51.654Z,22.80
2019-05-23T11:00:23.679Z,22.50
2019-05-23T11:02:54.424Z,22.40
2019-05-23T11:05:25.627Z,22.40
2019-05-23T11:07:56.414Z,22.50
2019-05-23T11:10:27.082Z,22.70
2019-05-23T11:12:57.513Z,22.90
2019-05-23T11:15:27.602Z,23.20
2019-05-23T11:17:58.086Z,23.60
2019-05-23T11:20:28.491Z,23.70
2019-05-23T11:22:58.506Z,23.80
2019-05-23T11:25:31.469Z,23.90
2019-05-23T11:28:01.893Z,24.10
2019-05-23T11:30:42.751Z,24.30
2019-05-23T11:33:14.727Z,24.50
2019-05-23T11:35:45.129Z,24.80
2019-05-23T11:38:15.580Z,25.00
2019-05-23T11:40:45.972Z,25.10
2019-05-23T11:43:15.899Z,25.20
2019-05-23T11:45:47.489Z,25.10
2019-05-23T11:48:18.318Z,24.90
2019-05-23T11:50:48.304Z,24.60
2019-05-23T11:53:18.801Z,24.60
2019-05-23T11:55:53.964Z,24.80
2019-05-23T11:58:20.972Z,25.00
2019-05-23T12:00:56.040Z,25.30
2019-05-23T12:03:26.726Z,25.40
2019-05-23T12:05:57.064Z,25.50
2019-05-23T12:08:27.671Z,25.50
2019-05-23T12:10:58.465Z,25.60
2019-05-23T12:13:28.747Z,25.70
2019-05-23T12:15:59.232Z,25.70
2019-05-23T12:18:29.619Z,25.70
2019-05-23T12:21:00.066Z,25.80
2019-05-23T12:23:30.302Z,25.90
2019-05-23T12:26:00.755Z,26.10
2019-05-23T12:28:31.629Z,26.20
2019-05-23T12:31:02.612Z,26.10
2019-05-23T12:33:32.709Z,26.10
2019-05-23T12:36:02.977Z,26.40
2019-05-23T12:38:33.359Z,26.60
2019-05-23T12:41:04.077Z,26.80
2019-05-23T12:43:35.331Z,27.00
2019-05-23T12:46:07.135Z,27.00
2019-05-23T12:48:54.015Z,27.10
2019-05-23T12:51:31.219Z,27.30
2019-05-23T12:54:02.524Z,27.20
2019-05-23T12:56:34.077Z,27.20
2019-05-23T12:59:10.529Z,27.10
2019-05-23T13:01:43.005Z,27.30
2019-05-23T13:04:13.475Z,27.40
2019-05-23T13:06:45.597Z,27.60
2019-05-23T13:09:16.716Z,27.70
2019-05-23T13:11:47.205Z,27.70
2019-05-23T13:14:20.312Z,27.90
2019-05-23T13:16:50.975Z,27.60
2019-05-23T13:19:21.356Z,27.50
2019-05-23T13:21:51.690Z,27.50
2019-05-23T13:24:22.155Z,27.30
2019-05-23T13:26:52.176Z,27.20
2019-05-23T13:29:24.442Z,27.30
2019-05-23T13:31:55.259Z,27.30
2019-05-23T13:34:26.757Z,27.10
2019-05-23T13:36:57.021Z,26.90
2019-05-23T13:39:27.531Z,27.10
2019-05-23T13:41:57.571Z,27.20
2019-05-23T13:44:33.758Z,27.40
2019-05-23T13:46:59.886Z,27.50
2019-05-23T13:49:30.187Z,27.50
2019-05-23T13:52:02.774Z,27.50
2019-05-23T13:54:36.163Z,27.30
2019-05-23T13:57:07.330Z,27.10
2019-05-23T13:59:37.161Z,27.30
2019-05-23T14:02:09.124Z,27.40
2019-05-23T14:04:39.732Z,27.40
2019-05-23T14:07:11.594Z,27.60
2019-05-23T14:09:41.937Z,27.90
2019-05-23T14:12:21.447Z,27.90
2019-05-23T14:14:43.374Z,28.00
2019-05-23T14:17:21.187Z,28.20
2019-05-23T14:19:51.581Z,28.40
2019-05-23T14:22:22.985Z,28.30
2019-05-23T14:24:53.143Z,28.40
2019-05-23T14:27:27.207Z,28.30
2019-05-23T14:29:57.817Z,28.10
2019-05-23T14:32:35.649Z,27.90
2019-05-23T14:35:06.270Z,27.80
2019-05-23T14:37:47.246Z,27.80
2019-05-23T14:40:18.425Z,27.80
2019-05-23T14:42:59.433Z,28.00
2019-05-23T14:45:31.197Z,28.20
2019-05-23T14:48:19.420Z,28.30
2019-05-23T14:50:57.379Z,28.20
2019-05-23T14:53:28.978Z,28.10
2019-05-23T14:55:59.321Z,28.00
2019-05-23T14:58:29.770Z,27.70
2019-05-23T15:01:00.949Z,27.70
2019-05-23T15:03:35.460Z,27.60
2019-05-23T15:06:03.959Z,27.50
2019-05-23T15:08:49.570Z,27.10
2019-05-23T15:11:11.437Z,26.90
2019-05-23T15:13:42.285Z,26.70
2019-05-23T15:16:12.973Z,26.60
2019-05-23T15:18:42.979Z,26.50
2019-05-23T15:21:13.284Z,26.30
2019-05-23T15:23:43.441Z,26.30
2019-05-23T15:26:23.019Z,26.20
2019-05-23T15:28:45.896Z,26.20
2019-05-23T15:31:16.161Z,26.00
2019-05-23T15:33:46.358Z,25.80
2019-05-23T15:36:16.423Z,25.70
2019-05-23T15:38:46.386Z,25.50
2019-05-23T15:41:16.664Z,25.40
2019-05-23T15:43:47.129Z,25.30
2019-05-23T15:46:17.908Z,25.20
2019-05-23T15:48:49.613Z,25.10
2019-05-23T15:51:30.066Z,25.00
2019-05-23T15:54:22.142Z,25.00
2019-05-23T15:56:57.222Z,25.00
2019-05-23T15:59:30.160Z,24.80
2019-05-23T16:02:04.809Z,24.70
2019-05-23T16:04:35.069Z,24.60
2019-05-23T16:07:07.018Z,24.50
2019-05-23T16:09:37.243Z,24.50
2019-05-23T16:12:09.517Z,24.40
2019-05-23T16:14:40.218Z,24.30
2019-05-23T16:17:12.047Z,24.20
2019-05-23T16:19:43.276Z,24.00
2019-05-23T16:22:14.390Z,23.90
2019-05-23T16:24:44.842Z,23.80
2019-05-23T16:27:15.184Z,23.80
2019-05-23T16:29:45.098Z,23.70
2019-05-23T16:32:15.554Z,23.50
2019-05-23T16:34:45.953Z,23.40
2019-05-23T16:37:16.136Z,23.30
2019-05-23T16:39:48.821Z,23.30
2019-05-23T16:42:18.584Z,23.20
2019-05-23T16:44:48.843Z,23.00
2019-05-23T16:47:19.422Z,22.80
2019-05-23T16:49:49.648Z,22.70
2019-05-23T16:52:20.014Z,22.60
2019-05-23T16:54:51.812Z,22.50
2019-05-23T16:57:23.940Z,22.40
2019-05-23T16:59:58.785Z,22.30
2019-05-23T17:02:40.021Z,22.20
2019-05-23T17:05:23.655Z,22.20
2019-05-23T17:07:55.456Z,22.20
2019-05-23T17:10:30.341Z,22.20
2019-05-23T17:13:02.356Z,22.00
2019-05-23T17:15:36.913Z,21.90
2019-05-23T17:18:12.504Z,21.80
2019-05-23T17:20:56.132Z,21.80
2019-05-23T17:23:42.697Z,21.70
2019-05-23T17:26:18.658Z,21.70
2019-05-23T17:28:59.633Z,21.60
2019-05-23T17:31:37.609Z,21.50
2019-05-23T17:34:07.952Z,21.50
2019-05-23T17:36:38.441Z,21.40
2019-05-23T17:39:10.465Z,21.30
2019-05-23T17:41:41.575Z,21.20
2019-05-23T17:44:11.673Z,21.20
2019-05-23T17:46:42.878Z,21.10
2019-05-23T17:49:13.116Z,21.00
2019-05-23T17:51:43.408Z,21.00
2019-05-23T17:54:15.501Z,20.90
2019-05-23T17:56:47.082Z,20.80
2019-05-23T17:59:18.524Z,20.80
2019-05-23T18:01:50.689Z,20.70
2019-05-23T18:04:20.880Z,20.70
2019-05-23T18:06:51.441Z,20.60
2019-05-23T18:09:21.855Z,20.60
2019-05-23T18:11:55.395Z,20.50
2019-05-23T18:14:24.206Z,20.50
2019-05-23T18:16:56.875Z,20.50
2019-05-23T18:19:27.528Z,20.40
2019-05-23T18:21:58.652Z,20.30
2019-05-23T18:24:29.068Z,20.20
2019-05-23T18:26:59.781Z,20.20
2019-05-23T18:29:30.276Z,20.10
2019-05-23T18:32:01.661Z,20.00
2019-05-23T18:34:33.263Z,19.90
2019-05-23T18:37:03.565Z,19.80
2019-05-23T18:39:34.729Z,19.70
2019-05-23T18:42:06.856Z,19.70
2019-05-23T18:44:37.672Z,19.70
2019-05-23T18:47:18.363Z,19.60
2019-05-23T18:49:48.861Z,19.50
2019-05-23T18:52:19.523Z,19.50
2019-05-23T18:54:49.978Z,19.50
2019-05-23T18:57:20.921Z,19.40
2019-05-23T18:59:51.334Z,19.30
2019-05-23T19:02:21.726Z,19.20
2019-05-23T19:04:52.510Z,19.20
2019-05-23T19:07:23.281Z,19.10
2019-05-23T19:09:54.185Z,19.10
2019-05-23T19:12:24.943Z,19.00
2019-05-23T19:14:55.744Z,18.90
2019-05-23T19:17:26.434Z,18.80
2019-05-23T19:20:02.007Z,18.80
2019-05-23T19:22:35.967Z,18.60
2019-05-23T19:25:10.069Z,18.50
2019-05-23T19:27:40.579Z,18.30
2019-05-23T19:30:11.936Z,18.00
2019-05-23T19:32:42.593Z,17.70
2019-05-23T19:35:13.466Z,17.50
2019-05-23T19:37:49.947Z,17.30
2019-05-23T19:40:21.088Z,17.20
2019-05-23T19:42:52.411Z,17.00
2019-05-23T19:45:23.022Z,16.80
2019-05-23T19:47:53.320Z,16.70
2019-05-23T19:50:24.367Z,16.50
2019-05-23T19:52:54.842Z,16.40
2019-05-23T19:55:25.691Z,16.20
2019-05-23T19:57:57.170Z,16.00
2019-05-23T20:00:29.526Z,15.90
2019-05-23T20:03:03.925Z,15.80
2019-05-23T20:05:40.407Z,15.70
2019-05-23T20:08:30.705Z,15.50
2019-05-23T20:11:01.010Z,15.50
2019-05-23T20:13:31.862Z,15.40
2019-05-23T20:16:02.528Z,15.40
2019-05-23T20:18:33.258Z,15.40
2019-05-23T20:21:03.971Z,15.40
2019-05-23T20:23:34.933Z,15.30
2019-05-23T20:26:07.888Z,15.20
2019-05-23T20:28:40.174Z,15.00
2019-05-23T20:31:09.969Z,14.90
2019-05-23T20:33:41.077Z,14.70
2019-05-23T20:36:13.744Z,14.60
2019-05-23T20:38:46.155Z,14.40
2019-05-23T20:41:16.642Z,14.20
2019-05-23T20:43:46.893Z,14.00
2019-05-23T20:46:26.444Z,14.00
2019-05-23T20:49:00.123Z,14.10
2019-05-23T20:51:31.570Z,14.10
2019-05-23T20:54:01.931Z,14.00
2019-05-23T20:56:32.181Z,14.00
2019-05-23T20:59:02.510Z,13.90
2019-05-23T21:01:34.215Z,13.80
2019-05-23T21:04:04.957Z,13.80
2019-05-23T21:06:35.067Z,13.70
2019-05-23T21:09:08.025Z,13.50
2019-05-23T21:11:38.256Z,13.40
2019-05-23T21:14:08.572Z,13.40
2019-05-23T21:16:38.676Z,13.40
2019-05-23T21:19:09.138Z,13.30
2019-05-23T21:21:39.245Z,13.20
2019-05-23T21:24:09.251Z,13.20
2019-05-23T21:26:39.253Z,13.20
2019-05-23T21:29:09.634Z,13.20
2019-05-23T21:31:39.763Z,13.20
2019-05-23T21:34:10.272Z,13.10
2019-05-23T21:36:40.481Z,13.10
2019-05-23T21:39:12.263Z,13.00
2019-05-23T21:41:42.791Z,12.90
2019-05-23T21:44:13.228Z,12.80
2019-05-23T21:46:45.037Z,12.70
2019-05-23T21:49:15.486Z,12.70
2019-05-23T21:51:45.729Z,12.70
2019-05-23T21:54:15.888Z,12.60
2019-05-23T21:56:46.001Z,12.60
2019-05-23T21:59:16.852Z,12.40
2019-05-23T22:01:51.421Z,12.30
2019-05-23T22:04:23.397Z,12.30
2019-05-23T22:06:55.924Z,12.40
2019-05-23T22:09:26.394Z,12.40
2019-05-23T22:11:56.424Z,12.50
2019-05-23T22:14:26.535Z,12.50
2019-05-23T22:16:56.557Z,12.40
2019-05-23T22:19:27.977Z,12.40
2019-05-23T22:22:01.274Z,12.40
2019-05-23T22:24:31.838Z,12.40
2019-05-23T22:27:02.305Z,12.40
2019-05-23T22:29:32.522Z,12.30
2019-05-23T22:32:02.801Z,12.20
2019-05-23T22:34:40.879Z,12.20
2019-05-23T22:37:12.877Z,12.10
2019-05-23T22:39:43.897Z,12.00
2019-05-23T22:42:14.754Z,12.10
2019-05-23T22:44:45.390Z,12.10
2019-05-23T22:47:15.750Z,12.00
2019-05-23T22:49:45.999Z,11.90
2019-05-23T22:52:16.355Z,11.80
2019-05-23T22:54:46.283Z,11.70
2019-05-23T22:57:16.953Z,11.60
2019-05-23T22:59:48.704Z,11.50
2019-05-23T23:02:19.384Z,11.40
2019-05-23T23:04:49.607Z,11.40
2019-05-23T23:07:20.097Z,11.30
2019-05-23T23:09:50.436Z,11.30
2019-05-23T23:12:22.451Z,11.30
2019-05-23T23:15:11.884Z,11.30
2019-05-23T23:17:49.895Z,11.30
2019-05-23T23:20:19.877Z,11.30
2019-05-23T23:22:50.123Z,11.20
2019-05-23T23:25:20.395Z,11.10
2019-05-23T23:27:50.699Z,11.10
2019-05-23T23:30:34.574Z,11.10
2019-05-23T23:33:04.468Z,11.10
2019-05-23T23:35:35.196Z,11.10
2019-05-23T23:38:05.686Z,11.00
2019-05-23T23:40:35.971Z,11.00
2019-05-23T23:43:25.547Z,11.00
2019-05-23T23:46:13.706Z,10.90
2019-05-23T23:49:01.659Z,10.90
2019-05-23T23:51:49.412Z,10.90
2019-05-23T23:54:37.091Z,10.90
2019-05-23T23:57:24.902Z,10.80
2019-05-23T23:59:54.620Z,10.80
